sensor_id;sensor_type;location;lat;lon;timestamp;pressure;altitude;pressure_sealevel;temperature;humidity
48364;BME280;34170;54.364;18.582;2023-12-07T00:00:27;100714.44;;;-2.66;100.00
48364;BME280;34170;54.364;18.582;2023-12-07T00:03:14;100735.31;;;-2.09;100.00
48364;BME280;34170;54.364;18.582;2023-12-07T00:05:43;100733.44;;;-2.58;100.00
48364;BME280;34170;54.364;18.582;2023-12-07T00:08:10;100703.16;;;-2.44;100.00
48364;BME280;34170;54.364;18.582;2023-12-07T00:10:38;100706.69;;;-2.45;100.00
48364;BME280;34170;54.364;18.582;2023-12-07T00:13:06;100724.19;;;-2.43;100.00
48364;BME280;34170;54.364;18.582;2023-12-07T00:15:33;100728.34;;;-2.36;100.00
48364;BME280;34170;54.364;18.582;2023-12-07T00:18:01;100727.69;;;-2.17;100.00
48364;BME280;34170;54.364;18.582;2023-12-07T00:20:30;100727.38;;;-2.08;100.00
48364;BME280;34170;54.364;18.582;2023-12-07T00:22:58;100731.41;;;-2.23;100.00
48364;BME280;34170;54.364;18.582;2023-12-07T00:25:25;100729.66;;;-1.99;100.00
48364;BME280;34170;54.364;18.582;2023-12-07T00:27:53;100721.34;;;-2.12;100.00
48364;BME280;34170;54.364;18.582;2023-12-07T00:30:20;100731.78;;;-2.08;100.00
48364;BME280;34170;54.364;18.582;2023-12-07T00:32:48;100728.53;;;-2.17;100.00
48364;BME280;34170;54.364;18.582;2023-12-07T00:35:15;100737.38;;;-2.18;100.00
48364;BME280;34170;54.364;18.582;2023-12-07T00:37:43;100701.44;;;-2.45;100.00
48364;BME280;34170;54.364;18.582;2023-12-07T00:40:11;100729.06;;;-2.05;100.00
48364;BME280;34170;54.364;18.582;2023-12-07T00:42:39;100731.22;;;-2.43;100.00
48364;BME280;34170;54.364;18.582;2023-12-07T00:45:08;100709.75;;;-2.58;100.00
48364;BME280;34170;54.364;18.582;2023-12-07T00:47:36;100712.09;;;-2.75;100.00
48364;BME280;34170;54.364;18.582;2023-12-07T00:50:04;100736.34;;;-2.65;100.00
48364;BME280;34170;54.364;18.582;2023-12-07T00:52:31;100725.44;;;-2.28;100.00
48364;BME280;34170;54.364;18.582;2023-12-07T00:54:59;100733.25;;;-2.25;100.00
48364;BME280;34170;54.364;18.582;2023-12-07T00:57:38;100718.44;;;-2.29;100.00
48364;BME280;34170;54.364;18.582;2023-12-07T01:00:06;100710.69;;;-2.59;100.00
48364;BME280;34170;54.364;18.582;2023-12-07T01:02:35;100736.88;;;-2.29;100.00
48364;BME280;34170;54.364;18.582;2023-12-07T01:05:03;100738.63;;;-2.55;100.00
48364;BME280;34170;54.364;18.582;2023-12-07T01:07:30;100721.78;;;-2.51;100.00
48364;BME280;34170;54.364;18.582;2023-12-07T01:09:58;100742.72;;;-2.46;100.00
48364;BME280;34170;54.364;18.582;2023-12-07T01:12:26;100726.88;;;-2.44;100.00
48364;BME280;34170;54.364;18.582;2023-12-07T01:14:53;100728.03;;;-2.80;100.00
48364;BME280;34170;54.364;18.582;2023-12-07T01:17:21;100742.84;;;-2.24;100.00
48364;BME280;34170;54.364;18.582;2023-12-07T01:19:48;100746.47;;;-2.53;100.00
48364;BME280;34170;54.364;18.582;2023-12-07T01:22:16;100751.44;;;-2.44;100.00
48364;BME280;34170;54.364;18.582;2023-12-07T01:24:43;100747.59;;;-2.08;100.00
48364;BME280;34170;54.364;18.582;2023-12-07T01:27:11;100757.81;;;-1.99;100.00
48364;BME280;34170;54.364;18.582;2023-12-07T01:29:39;100734.38;;;-2.32;100.00
48364;BME280;34170;54.364;18.582;2023-12-07T01:32:07;100750.75;;;-2.24;100.00
48364;BME280;34170;54.364;18.582;2023-12-07T01:34:36;100751.06;;;-2.60;100.00
48364;BME280;34170;54.364;18.582;2023-12-07T01:37:03;100762.94;;;-2.46;100.00
48364;BME280;34170;54.364;18.582;2023-12-07T01:39:31;100758.31;;;-2.40;100.00
48364;BME280;34170;54.364;18.582;2023-12-07T01:41:58;100756.97;;;-2.25;100.00
48364;BME280;34170;54.364;18.582;2023-12-07T01:44:26;100759.91;;;-2.61;100.00
48364;BME280;34170;54.364;18.582;2023-12-07T01:46:55;100757.75;;;-2.23;100.00
48364;BME280;34170;54.364;18.582;2023-12-07T01:49:23;100757.13;;;-2.04;100.00
48364;BME280;34170;54.364;18.582;2023-12-07T01:51:51;100752.34;;;-1.93;100.00
48364;BME280;34170;54.364;18.582;2023-12-07T01:54:19;100744.56;;;-2.48;100.00
48364;BME280;34170;54.364;18.582;2023-12-07T01:56:46;100764.88;;;-2.52;100.00
48364;BME280;34170;54.364;18.582;2023-12-07T01:59:15;100733.25;;;-2.52;100.00
48364;BME280;34170;54.364;18.582;2023-12-07T02:01:43;100755.84;;;-2.18;100.00
48364;BME280;34170;54.364;18.582;2023-12-07T02:04:11;100749.88;;;-2.50;100.00
48364;BME280;34170;54.364;18.582;2023-12-07T02:06:38;100749.81;;;-2.48;100.00
48364;BME280;34170;54.364;18.582;2023-12-07T02:09:07;100760.78;;;-2.08;100.00
48364;BME280;34170;54.364;18.582;2023-12-07T02:11:35;100746.91;;;-2.40;100.00
48364;BME280;34170;54.364;18.582;2023-12-07T02:14:03;100755.88;;;-2.19;100.00
48364;BME280;34170;54.364;18.582;2023-12-07T02:19:17;100757.28;;;-1.84;100.00
48364;BME280;34170;54.364;18.582;2023-12-07T02:21:59;100733.34;;;-2.28;100.00
48364;BME280;34170;54.364;18.582;2023-12-07T02:24:33;100738.66;;;-2.30;100.00
48364;BME280;34170;54.364;18.582;2023-12-07T02:27:01;100761.06;;;-1.91;100.00
48364;BME280;34170;54.364;18.582;2023-12-07T02:29:28;100761.59;;;-2.06;100.00
48364;BME280;34170;54.364;18.582;2023-12-07T02:31:56;100763.94;;;-2.24;100.00
48364;BME280;34170;54.364;18.582;2023-12-07T02:34:23;100767.09;;;-2.39;100.00
48364;BME280;34170;54.364;18.582;2023-12-07T02:36:53;100758.41;;;-2.16;100.00
48364;BME280;34170;54.364;18.582;2023-12-07T02:39:23;100771.84;;;-2.24;100.00
48364;BME280;34170;54.364;18.582;2023-12-07T02:41:51;100758.81;;;-2.02;100.00
48364;BME280;34170;54.364;18.582;2023-12-07T02:44:21;100776.56;;;-2.34;100.00
48364;BME280;34170;54.364;18.582;2023-12-07T02:46:48;100780.44;;;-2.19;100.00
48364;BME280;34170;54.364;18.582;2023-12-07T02:49:16;100777.75;;;-2.17;100.00
48364;BME280;34170;54.364;18.582;2023-12-07T02:51:44;100775.63;;;-2.06;100.00
48364;BME280;34170;54.364;18.582;2023-12-07T02:54:11;100747.28;;;-2.24;100.00
48364;BME280;34170;54.364;18.582;2023-12-07T02:56:39;100747.50;;;-2.05;100.00
48364;BME280;34170;54.364;18.582;2023-12-07T02:59:06;100770.56;;;-2.12;100.00
48364;BME280;34170;54.364;18.582;2023-12-07T03:01:34;100772.28;;;-2.11;100.00
48364;BME280;34170;54.364;18.582;2023-12-07T03:04:01;100769.81;;;-2.16;100.00
48364;BME280;34170;54.364;18.582;2023-12-07T03:06:29;100776.78;;;-2.15;100.00
48364;BME280;34170;54.364;18.582;2023-12-07T03:08:56;100772.81;;;-2.01;100.00
48364;BME280;34170;54.364;18.582;2023-12-07T03:11:24;100775.22;;;-2.20;100.00
48364;BME280;34170;54.364;18.582;2023-12-07T03:13:52;100768.63;;;-2.32;100.00
48364;BME280;34170;54.364;18.582;2023-12-07T03:16:20;100768.34;;;-2.24;100.00
48364;BME280;34170;54.364;18.582;2023-12-07T03:18:48;100771.38;;;-2.10;100.00
48364;BME280;34170;54.364;18.582;2023-12-07T03:21:15;100770.75;;;-2.18;100.00
48364;BME280;34170;54.364;18.582;2023-12-07T03:23:43;100770.88;;;-2.21;100.00
48364;BME280;34170;54.364;18.582;2023-12-07T03:26:10;100744.41;;;-2.18;100.00
48364;BME280;34170;54.364;18.582;2023-12-07T03:28:38;100759.59;;;-2.00;100.00
48364;BME280;34170;54.364;18.582;2023-12-07T03:31:05;100751.84;;;-2.04;100.00
48364;BME280;34170;54.364;18.582;2023-12-07T03:33:33;100761.50;;;-2.30;100.00
48364;BME280;34170;54.364;18.582;2023-12-07T03:36:00;100769.00;;;-2.18;100.00
48364;BME280;34170;54.364;18.582;2023-12-07T03:38:30;100739.78;;;-2.37;100.00
48364;BME280;34170;54.364;18.582;2023-12-07T03:40:57;100741.34;;;-2.31;100.00
48364;BME280;34170;54.364;18.582;2023-12-07T03:43:25;100742.09;;;-2.27;100.00
48364;BME280;34170;54.364;18.582;2023-12-07T03:45:52;100743.06;;;-2.30;100.00
48364;BME280;34170;54.364;18.582;2023-12-07T03:48:20;100747.16;;;-1.96;100.00
48364;BME280;34170;54.364;18.582;2023-12-07T03:50:47;100761.94;;;-2.17;100.00
48364;BME280;34170;54.364;18.582;2023-12-07T03:53:15;100763.59;;;-2.15;100.00
48364;BME280;34170;54.364;18.582;2023-12-07T03:55:43;100753.38;;;-2.24;100.00
48364;BME280;34170;54.364;18.582;2023-12-07T03:58:10;100762.09;;;-2.22;100.00
48364;BME280;34170;54.364;18.582;2023-12-07T04:00:38;100759.19;;;-1.64;100.00
48364;BME280;34170;54.364;18.582;2023-12-07T04:03:06;100759.19;;;-2.13;100.00
48364;BME280;34170;54.364;18.582;2023-12-07T04:05:33;100770.94;;;-1.49;100.00
48364;BME280;34170;54.364;18.582;2023-12-07T04:08:01;100770.72;;;-1.92;100.00
48364;BME280;34170;54.364;18.582;2023-12-07T04:10:28;100781.56;;;-1.50;100.00
48364;BME280;34170;54.364;18.582;2023-12-07T04:12:56;100781.25;;;-1.92;100.00
48364;BME280;34170;54.364;18.582;2023-12-07T04:15:24;100778.91;;;-1.74;100.00
48364;BME280;34170;54.364;18.582;2023-12-07T04:17:52;100768.69;;;-2.08;100.00
48364;BME280;34170;54.364;18.582;2023-12-07T04:20:20;100775.94;;;-1.90;100.00
48364;BME280;34170;54.364;18.582;2023-12-07T04:22:47;100780.41;;;-1.92;100.00
48364;BME280;34170;54.364;18.582;2023-12-07T04:25:15;100765.38;;;-2.40;100.00
48364;BME280;34170;54.364;18.582;2023-12-07T04:27:42;100772.00;;;-2.28;100.00
48364;BME280;34170;54.364;18.582;2023-12-07T04:30:10;100772.59;;;-1.95;100.00
48364;BME280;34170;54.364;18.582;2023-12-07T04:32:38;100782.94;;;-1.64;100.00
48364;BME280;34170;54.364;18.582;2023-12-07T04:35:06;100789.94;;;-1.88;100.00
48364;BME280;34170;54.364;18.582;2023-12-07T04:37:34;100766.94;;;-2.09;100.00
48364;BME280;34170;54.364;18.582;2023-12-07T04:40:01;100773.25;;;-2.14;100.00
48364;BME280;34170;54.364;18.582;2023-12-07T04:42:32;100765.00;;;-2.30;100.00
48364;BME280;34170;54.364;18.582;2023-12-07T04:44:59;100756.59;;;-2.14;100.00
48364;BME280;34170;54.364;18.582;2023-12-07T04:47:28;100765.66;;;-2.23;100.00
48364;BME280;34170;54.364;18.582;2023-12-07T04:49:55;100776.22;;;-1.98;100.00
48364;BME280;34170;54.364;18.582;2023-12-07T04:52:23;100784.56;;;-1.85;100.00
48364;BME280;34170;54.364;18.582;2023-12-07T04:54:51;100765.81;;;-1.77;100.00
48364;BME280;34170;54.364;18.582;2023-12-07T04:57:19;100772.53;;;-1.68;100.00
48364;BME280;34170;54.364;18.582;2023-12-07T04:59:46;100782.63;;;-2.05;100.00
48364;BME280;34170;54.364;18.582;2023-12-07T05:02:17;100799.91;;;-1.96;100.00
48364;BME280;34170;54.364;18.582;2023-12-07T05:04:45;100802.56;;;-2.23;100.00
48364;BME280;34170;54.364;18.582;2023-12-07T05:07:13;100801.56;;;-1.94;100.00
48364;BME280;34170;54.364;18.582;2023-12-07T05:09:41;100804.75;;;-1.84;100.00
48364;BME280;34170;54.364;18.582;2023-12-07T05:12:08;100821.66;;;-1.89;100.00
48364;BME280;34170;54.364;18.582;2023-12-07T05:14:36;100807.63;;;-1.92;100.00
48364;BME280;34170;54.364;18.582;2023-12-07T05:17:03;100787.19;;;-2.10;100.00
48364;BME280;34170;54.364;18.582;2023-12-07T05:19:32;100792.34;;;-2.07;100.00
48364;BME280;34170;54.364;18.582;2023-12-07T05:22:00;100797.31;;;-1.98;100.00
48364;BME280;34170;54.364;18.582;2023-12-07T05:24:28;100803.25;;;-1.91;100.00
48364;BME280;34170;54.364;18.582;2023-12-07T05:26:55;100804.31;;;-1.97;100.00
48364;BME280;34170;54.364;18.582;2023-12-07T05:29:23;100827.53;;;-1.83;100.00
48364;BME280;34170;54.364;18.582;2023-12-07T05:31:51;100830.19;;;-1.83;100.00
48364;BME280;34170;54.364;18.582;2023-12-07T05:34:18;100825.09;;;-1.87;100.00
48364;BME280;34170;54.364;18.582;2023-12-07T05:36:46;100814.72;;;-1.68;100.00
48364;BME280;34170;54.364;18.582;2023-12-07T05:39:15;100826.69;;;-1.83;100.00
48364;BME280;34170;54.364;18.582;2023-12-07T05:41:45;100826.56;;;-2.05;100.00
48364;BME280;34170;54.364;18.582;2023-12-07T05:44:14;100816.53;;;-2.21;100.00
48364;BME280;34170;54.364;18.582;2023-12-07T05:46:42;100821.50;;;-2.12;100.00
48364;BME280;34170;54.364;18.582;2023-12-07T05:49:11;100828.69;;;-1.65;100.00
48364;BME280;34170;54.364;18.582;2023-12-07T05:51:39;100831.13;;;-2.11;100.00
48364;BME280;34170;54.364;18.582;2023-12-07T05:54:07;100835.41;;;-1.81;100.00
48364;BME280;34170;54.364;18.582;2023-12-07T05:56:35;100824.47;;;-1.70;100.00
48364;BME280;34170;54.364;18.582;2023-12-07T05:59:02;100830.72;;;-1.98;100.00
48364;BME280;34170;54.364;18.582;2023-12-07T06:01:30;100828.81;;;-2.20;100.00
48364;BME280;34170;54.364;18.582;2023-12-07T06:03:58;100829.38;;;-2.38;100.00
48364;BME280;34170;54.364;18.582;2023-12-07T06:06:26;100812.94;;;-2.45;100.00
48364;BME280;34170;54.364;18.582;2023-12-07T06:08:53;100829.22;;;-2.32;100.00
48364;BME280;34170;54.364;18.582;2023-12-07T06:11:21;100824.69;;;-2.28;100.00
48364;BME280;34170;54.364;18.582;2023-12-07T06:13:48;100830.25;;;-2.11;100.00
48364;BME280;34170;54.364;18.582;2023-12-07T06:16:16;100821.81;;;-2.21;100.00
48364;BME280;34170;54.364;18.582;2023-12-07T06:18:45;100823.94;;;-2.32;100.00
48364;BME280;34170;54.364;18.582;2023-12-07T06:21:14;100824.41;;;-2.19;100.00
48364;BME280;34170;54.364;18.582;2023-12-07T06:23:41;100826.34;;;-2.26;100.00
48364;BME280;34170;54.364;18.582;2023-12-07T06:26:09;100854.84;;;-2.11;100.00
48364;BME280;34170;54.364;18.582;2023-12-07T06:28:36;100829.59;;;-2.44;100.00
48364;BME280;34170;54.364;18.582;2023-12-07T06:31:05;100852.22;;;-2.11;100.00
48364;BME280;34170;54.364;18.582;2023-12-07T06:33:36;100854.66;;;-2.33;100.00
48364;BME280;34170;54.364;18.582;2023-12-07T06:36:04;100830.91;;;-2.31;100.00
48364;BME280;34170;54.364;18.582;2023-12-07T06:38:31;100847.19;;;-2.18;100.00
48364;BME280;34170;54.364;18.582;2023-12-07T06:40:59;100856.41;;;-2.32;100.00
48364;BME280;34170;54.364;18.582;2023-12-07T06:43:26;100854.63;;;-2.04;100.00
48364;BME280;34170;54.364;18.582;2023-12-07T06:45:54;100836.50;;;-2.40;100.00
48364;BME280;34170;54.364;18.582;2023-12-07T06:48:22;100861.75;;;-2.06;100.00
48364;BME280;34170;54.364;18.582;2023-12-07T06:50:50;100867.28;;;-1.87;100.00
48364;BME280;34170;54.364;18.582;2023-12-07T06:53:17;100861.25;;;-1.91;100.00
48364;BME280;34170;54.364;18.582;2023-12-07T06:55:46;100858.78;;;-2.24;100.00
48364;BME280;34170;54.364;18.582;2023-12-07T06:58:13;100855.34;;;-2.26;100.00
48364;BME280;34170;54.364;18.582;2023-12-07T07:00:41;100877.06;;;-1.91;100.00
48364;BME280;34170;54.364;18.582;2023-12-07T07:03:08;100876.94;;;-1.88;100.00
48364;BME280;34170;54.364;18.582;2023-12-07T07:05:36;100883.31;;;-2.22;100.00
48364;BME280;34170;54.364;18.582;2023-12-07T07:08:04;100884.78;;;-2.13;100.00
48364;BME280;34170;54.364;18.582;2023-12-07T07:10:31;100878.00;;;-1.94;100.00
48364;BME280;34170;54.364;18.582;2023-12-07T07:13:00;100867.97;;;-2.09;100.00
48364;BME280;34170;54.364;18.582;2023-12-07T07:15:31;100851.75;;;-2.50;100.00
48364;BME280;34170;54.364;18.582;2023-12-07T07:17:59;100879.44;;;-2.38;100.00
48364;BME280;34170;54.364;18.582;2023-12-07T07:20:28;100855.00;;;-2.43;100.00
48364;BME280;34170;54.364;18.582;2023-12-07T07:22:55;100874.03;;;-2.34;100.00
48364;BME280;34170;54.364;18.582;2023-12-07T07:25:24;100865.50;;;-2.14;100.00
48364;BME280;34170;54.364;18.582;2023-12-07T07:27:51;100847.75;;;-2.08;100.00
48364;BME280;34170;54.364;18.582;2023-12-07T07:30:21;100852.41;;;-1.90;100.00
48364;BME280;34170;54.364;18.582;2023-12-07T07:32:49;100878.97;;;-1.69;100.00
48364;BME280;34170;54.364;18.582;2023-12-07T07:35:17;100864.28;;;-2.03;100.00
48364;BME280;34170;54.364;18.582;2023-12-07T07:37:45;100879.56;;;-1.88;100.00
48364;BME280;34170;54.364;18.582;2023-12-07T07:40:13;100883.03;;;-1.86;100.00
48364;BME280;34170;54.364;18.582;2023-12-07T07:42:40;100868.94;;;-2.12;100.00
48364;BME280;34170;54.364;18.582;2023-12-07T07:45:09;100879.47;;;-2.12;100.00
48364;BME280;34170;54.364;18.582;2023-12-07T07:47:37;100873.50;;;-1.65;100.00
48364;BME280;34170;54.364;18.582;2023-12-07T07:50:06;100861.94;;;-1.86;100.00
48364;BME280;34170;54.364;18.582;2023-12-07T07:52:34;100872.31;;;-2.08;100.00
48364;BME280;34170;54.364;18.582;2023-12-07T07:55:04;100846.63;;;-2.28;100.00
48364;BME280;34170;54.364;18.582;2023-12-07T07:57:32;100852.06;;;-1.81;100.00
48364;BME280;34170;54.364;18.582;2023-12-07T08:00:00;100862.34;;;-1.71;100.00
48364;BME280;34170;54.364;18.582;2023-12-07T08:02:27;100885.19;;;-1.47;100.00
48364;BME280;34170;54.364;18.582;2023-12-07T08:04:55;100886.47;;;-2.11;100.00
48364;BME280;34170;54.364;18.582;2023-12-07T08:07:22;100883.25;;;-1.67;100.00
48364;BME280;34170;54.364;18.582;2023-12-07T08:09:51;100890.63;;;-1.77;100.00
48364;BME280;34170;54.364;18.582;2023-12-07T08:12:18;100882.47;;;-1.96;100.00
48364;BME280;34170;54.364;18.582;2023-12-07T08:14:46;100867.28;;;-2.14;100.00
48364;BME280;34170;54.364;18.582;2023-12-07T08:17:15;100879.78;;;-2.21;100.00
48364;BME280;34170;54.364;18.582;2023-12-07T08:19:43;100877.66;;;-2.09;100.00
48364;BME280;34170;54.364;18.582;2023-12-07T08:22:11;100885.16;;;-1.97;100.00
48364;BME280;34170;54.364;18.582;2023-12-07T08:24:39;100860.53;;;-1.96;100.00
48364;BME280;34170;54.364;18.582;2023-12-07T08:27:07;100856.00;;;-2.19;100.00
48364;BME280;34170;54.364;18.582;2023-12-07T08:29:35;100854.53;;;-2.01;100.00
48364;BME280;34170;54.364;18.582;2023-12-07T08:32:04;100865.09;;;-2.01;100.00
48364;BME280;34170;54.364;18.582;2023-12-07T08:34:31;100879.19;;;-1.77;100.00
48364;BME280;34170;54.364;18.582;2023-12-07T08:36:59;100886.47;;;-1.84;100.00
48364;BME280;34170;54.364;18.582;2023-12-07T08:39:27;100874.19;;;-2.12;100.00
48364;BME280;34170;54.364;18.582;2023-12-07T08:41:55;100899.53;;;-1.81;100.00
48364;BME280;34170;54.364;18.582;2023-12-07T08:44:22;100894.13;;;-1.51;100.00
48364;BME280;34170;54.364;18.582;2023-12-07T08:46:50;100872.75;;;-1.68;100.00
48364;BME280;34170;54.364;18.582;2023-12-07T08:49:18;100887.78;;;-1.97;100.00
48364;BME280;34170;54.364;18.582;2023-12-07T08:51:45;100868.22;;;-1.90;100.00
48364;BME280;34170;54.364;18.582;2023-12-07T08:54:33;100874.56;;;-1.96;100.00
48364;BME280;34170;54.364;18.582;2023-12-07T08:57:00;100896.50;;;-1.43;100.00
48364;BME280;34170;54.364;18.582;2023-12-07T08:59:29;100905.31;;;-1.43;100.00
48364;BME280;34170;54.364;18.582;2023-12-07T09:01:57;100898.38;;;-1.47;100.00
48364;BME280;34170;54.364;18.582;2023-12-07T09:04:25;100919.38;;;-1.19;100.00
48364;BME280;34170;54.364;18.582;2023-12-07T09:06:52;100915.63;;;-1.37;100.00
48364;BME280;34170;54.364;18.582;2023-12-07T09:09:20;100898.69;;;-1.81;100.00
48364;BME280;34170;54.364;18.582;2023-12-07T09:11:49;100910.56;;;-1.43;100.00
48364;BME280;34170;54.364;18.582;2023-12-07T09:14:17;100911.38;;;-1.66;100.00
48364;BME280;34170;54.364;18.582;2023-12-07T09:16:45;100905.72;;;-1.30;100.00
48364;BME280;34170;54.364;18.582;2023-12-07T09:19:15;100922.13;;;-0.97;100.00
48364;BME280;34170;54.364;18.582;2023-12-07T09:21:42;100925.97;;;-1.56;100.00
48364;BME280;34170;54.364;18.582;2023-12-07T09:24:10;100924.75;;;-1.47;100.00
48364;BME280;34170;54.364;18.582;2023-12-07T09:26:37;100926.16;;;-1.11;100.00
48364;BME280;34170;54.364;18.582;2023-12-07T09:29:05;100914.22;;;-1.47;100.00
48364;BME280;34170;54.364;18.582;2023-12-07T09:31:33;100886.88;;;-1.69;100.00
48364;BME280;34170;54.364;18.582;2023-12-07T09:34:00;100895.59;;;-1.42;100.00
48364;BME280;34170;54.364;18.582;2023-12-07T09:36:39;100898.75;;;-1.32;100.00
48364;BME280;34170;54.364;18.582;2023-12-07T09:39:06;100874.50;;;-1.42;100.00
48364;BME280;34170;54.364;18.582;2023-12-07T09:41:33;100906.09;;;-1.16;100.00
48364;BME280;34170;54.364;18.582;2023-12-07T09:44:01;100914.69;;;-1.34;100.00
48364;BME280;34170;54.364;18.582;2023-12-07T09:46:31;100878.38;;;-1.52;100.00
48364;BME280;34170;54.364;18.582;2023-12-07T09:48:59;100887.28;;;-1.06;100.00
48364;BME280;34170;54.364;18.582;2023-12-07T09:51:27;100904.78;;;-0.80;100.00
48364;BME280;34170;54.364;18.582;2023-12-07T09:53:59;100901.16;;;-1.25;100.00
48364;BME280;34170;54.364;18.582;2023-12-07T09:56:26;100877.50;;;-1.28;100.00
48364;BME280;34170;54.364;18.582;2023-12-07T09:58:54;100893.44;;;-1.31;100.00
48364;BME280;34170;54.364;18.582;2023-12-07T10:01:28;100872.56;;;-0.90;100.00
48364;BME280;34170;54.364;18.582;2023-12-07T10:04:18;100892.25;;;-0.99;100.00
48364;BME280;34170;54.364;18.582;2023-12-07T10:06:46;100858.25;;;-1.55;100.00
48364;BME280;34170;54.364;18.582;2023-12-07T10:09:18;100889.97;;;-0.84;100.00
48364;BME280;34170;54.364;18.582;2023-12-07T10:12:02;100883.38;;;-0.96;100.00
48364;BME280;34170;54.364;18.582;2023-12-07T10:14:31;100891.25;;;-0.94;100.00
48364;BME280;34170;54.364;18.582;2023-12-07T10:16:59;100885.66;;;-0.87;100.00
48364;BME280;34170;54.364;18.582;2023-12-07T10:19:27;100886.66;;;-0.89;100.00
48364;BME280;34170;54.364;18.582;2023-12-07T10:21:58;100879.47;;;-0.86;100.00
48364;BME280;34170;54.364;18.582;2023-12-07T10:24:27;100887.41;;;-0.86;100.00
48364;BME280;34170;54.364;18.582;2023-12-07T10:26:55;100874.84;;;-0.81;100.00
48364;BME280;34170;54.364;18.582;2023-12-07T10:29:30;100860.69;;;-1.25;100.00
48364;BME280;34170;54.364;18.582;2023-12-07T10:32:01;100878.72;;;-0.66;100.00
48364;BME280;34170;54.364;18.582;2023-12-07T10:34:31;100876.53;;;-0.78;100.00
48364;BME280;34170;54.364;18.582;2023-12-07T10:37:00;100889.06;;;-0.83;100.00
48364;BME280;34170;54.364;18.582;2023-12-07T10:39:28;100876.91;;;-0.87;100.00
48364;BME280;34170;54.364;18.582;2023-12-07T10:42:03;100867.53;;;-1.20;100.00
48364;BME280;34170;54.364;18.582;2023-12-07T10:44:36;100858.38;;;-1.35;100.00
48364;BME280;34170;54.364;18.582;2023-12-07T10:47:09;100865.22;;;-1.54;100.00
48364;BME280;34170;54.364;18.582;2023-12-07T10:49:40;100854.13;;;-1.39;100.00
48364;BME280;34170;54.364;18.582;2023-12-07T10:52:16;100852.97;;;-1.55;100.00
48364;BME280;34170;54.364;18.582;2023-12-07T10:57:26;100879.59;;;-1.12;100.00
48364;BME280;34170;54.364;18.582;2023-12-07T10:59:57;100885.31;;;-1.25;100.00
48364;BME280;34170;54.364;18.582;2023-12-07T11:02:25;100863.31;;;-1.00;100.00
48364;BME280;34170;54.364;18.582;2023-12-07T11:04:56;100874.06;;;-1.06;100.00
48364;BME280;34170;54.364;18.582;2023-12-07T11:07:27;100875.22;;;-0.90;100.00
48364;BME280;34170;54.364;18.582;2023-12-07T11:10:07;100865.72;;;-0.72;100.00
48364;BME280;34170;54.364;18.582;2023-12-07T11:12:46;100851.34;;;-0.65;100.00
48364;BME280;34170;54.364;18.582;2023-12-07T11:15:17;100867.34;;;-1.15;100.00
48364;BME280;34170;54.364;18.582;2023-12-07T11:17:52;100867.69;;;-0.77;100.00
48364;BME280;34170;54.364;18.582;2023-12-07T11:20:22;100868.56;;;-0.77;100.00
48364;BME280;34170;54.364;18.582;2023-12-07T11:22:59;100880.88;;;-0.31;100.00
48364;BME280;34170;54.364;18.582;2023-12-07T11:25:27;100867.97;;;-0.39;100.00
48364;BME280;34170;54.364;18.582;2023-12-07T11:28:04;100856.03;;;-0.71;100.00
48364;BME280;34170;54.364;18.582;2023-12-07T11:30:35;100862.19;;;-0.71;100.00
48364;BME280;34170;54.364;18.582;2023-12-07T11:33:04;100860.81;;;-0.81;100.00
48364;BME280;34170;54.364;18.582;2023-12-07T11:35:33;100834.72;;;-0.67;100.00
48364;BME280;34170;54.364;18.582;2023-12-07T11:38:08;100857.25;;;-0.80;100.00
48364;BME280;34170;54.364;18.582;2023-12-07T11:40:40;100854.63;;;-0.80;100.00
48364;BME280;34170;54.364;18.582;2023-12-07T11:43:40;100848.56;;;-1.31;100.00
48364;BME280;34170;54.364;18.582;2023-12-07T11:46:09;100831.72;;;-1.27;100.00
48364;BME280;34170;54.364;18.582;2023-12-07T11:48:37;100857.13;;;-1.01;100.00
48364;BME280;34170;54.364;18.582;2023-12-07T11:51:06;100835.78;;;-0.94;100.00
48364;BME280;34170;54.364;18.582;2023-12-07T11:53:37;100827.34;;;-1.04;100.00
48364;BME280;34170;54.364;18.582;2023-12-07T11:56:08;100852.63;;;-0.51;100.00
48364;BME280;34170;54.364;18.582;2023-12-07T11:58:36;100846.53;;;-0.53;100.00
48364;BME280;34170;54.364;18.582;2023-12-07T12:01:08;100838.53;;;-0.98;100.00
48364;BME280;34170;54.364;18.582;2023-12-07T12:03:37;100835.28;;;-1.28;100.00
48364;BME280;34170;54.364;18.582;2023-12-07T12:06:06;100862.00;;;-1.13;100.00
48364;BME280;34170;54.364;18.582;2023-12-07T12:08:35;100851.00;;;-1.25;100.00
48364;BME280;34170;54.364;18.582;2023-12-07T12:11:04;100860.97;;;-1.09;100.00
48364;BME280;34170;54.364;18.582;2023-12-07T12:13:35;100853.94;;;-1.09;100.00
48364;BME280;34170;54.364;18.582;2023-12-07T12:16:04;100825.31;;;-0.74;100.00
48364;BME280;34170;54.364;18.582;2023-12-07T12:18:34;100848.00;;;-0.46;100.00
48364;BME280;34170;54.364;18.582;2023-12-07T12:21:03;100843.88;;;-0.99;100.00
48364;BME280;34170;54.364;18.582;2023-12-07T12:23:30;100846.06;;;-1.34;100.00
48364;BME280;34170;54.364;18.582;2023-12-07T12:25:58;100830.63;;;-1.45;100.00
48364;BME280;34170;54.364;18.582;2023-12-07T12:28:26;100836.72;;;-1.19;100.00
48364;BME280;34170;54.364;18.582;2023-12-07T12:30:55;100847.22;;;-1.18;100.00
48364;BME280;34170;54.364;18.582;2023-12-07T12:33:22;100843.63;;;-1.40;100.00
48364;BME280;34170;54.364;18.582;2023-12-07T12:36:02;100839.06;;;-1.11;100.00
48364;BME280;34170;54.364;18.582;2023-12-07T12:38:30;100836.13;;;-0.58;100.00
48364;BME280;34170;54.364;18.582;2023-12-07T12:41:09;100831.34;;;-1.16;100.00
48364;BME280;34170;54.364;18.582;2023-12-07T12:43:36;100837.97;;;-1.06;100.00